sensor_id;sensor_type;location;lat;lon;timestamp;P1;durP1;ratioP1;P2;durP2;ratioP2
20038;SDS011;21737;42.868;25.320;2023-01-10T00:01:27;14.67;;;8.13;;
20038;SDS011;21737;42.868;25.320;2023-01-10T00:04:29;14.13;;;8.40;;
20038;SDS011;21737;42.868;25.320;2023-01-10T00:07:31;15.87;;;9.70;;
20038;SDS011;21737;42.868;25.320;2023-01-10T00:10:32;14.50;;;9.57;;
20038;SDS011;21737;42.868;25.320;2023-01-10T00:13:34;14.43;;;9.37;;
20038;SDS011;21737;42.868;25.320;2023-01-10T00:16:36;15.67;;;9.90;;
20038;SDS011;21737;42.868;25.320;2023-01-10T00:19:39;14.13;;;9.10;;
20038;SDS011;21737;42.868;25.320;2023-01-10T00:22:41;16.50;;;10.80;;
20038;SDS011;21737;42.868;25.320;2023-01-10T00:25:43;15.53;;;9.17;;
20038;SDS011;21737;42.868;25.320;2023-01-10T00:28:45;14.77;;;8.00;;
20038;SDS011;21737;42.868;25.320;2023-01-10T00:31:47;19.50;;;11.67;;
20038;SDS011;21737;42.868;25.320;2023-01-10T00:34:48;20.50;;;12.00;;
20038;SDS011;21737;42.868;25.320;2023-01-10T00:37:50;20.00;;;11.80;;
20038;SDS011;21737;42.868;25.320;2023-01-10T00:40:58;19.43;;;10.03;;
20038;SDS011;21737;42.868;25.320;2023-01-10T00:43:59;23.00;;;12.57;;
20038;SDS011;21737;42.868;25.320;2023-01-10T00:47:01;24.27;;;12.17;;
20038;SDS011;21737;42.868;25.320;2023-01-10T00:50:03;24.77;;;14.70;;
20038;SDS011;21737;42.868;25.320;2023-01-10T00:53:09;26.60;;;16.27;;
20038;SDS011;21737;42.868;25.320;2023-01-10T00:56:10;18.67;;;10.90;;
20038;SDS011;21737;42.868;25.320;2023-01-10T00:59:12;25.43;;;14.83;;
20038;SDS011;21737;42.868;25.320;2023-01-10T01:02:13;26.97;;;15.20;;
20038;SDS011;21737;42.868;25.320;2023-01-10T01:05:16;26.33;;;16.23;;
20038;SDS011;21737;42.868;25.320;2023-01-10T01:08:18;23.30;;;14.10;;
20038;SDS011;21737;42.868;25.320;2023-01-10T01:11:19;20.80;;;12.30;;
20038;SDS011;21737;42.868;25.320;2023-01-10T01:14:21;18.87;;;10.73;;
20038;SDS011;21737;42.868;25.320;2023-01-10T01:17:23;22.50;;;13.73;;
20038;SDS011;21737;42.868;25.320;2023-01-10T01:20:25;19.50;;;11.70;;
20038;SDS011;21737;42.868;25.320;2023-01-10T01:23:27;20.80;;;13.30;;
20038;SDS011;21737;42.868;25.320;2023-01-10T01:26:29;20.70;;;12.87;;
20038;SDS011;21737;42.868;25.320;2023-01-10T01:29:31;21.57;;;12.80;;
20038;SDS011;21737;42.868;25.320;2023-01-10T01:32:43;17.63;;;11.10;;
20038;SDS011;21737;42.868;25.320;2023-01-10T01:35:46;19.23;;;11.87;;
20038;SDS011;21737;42.868;25.320;2023-01-10T01:38:48;20.67;;;12.30;;
20038;SDS011;21737;42.868;25.320;2023-01-10T01:41:50;19.13;;;12.63;;
20038;SDS011;21737;42.868;25.320;2023-01-10T01:51:26;18.93;;;11.27;;
20038;SDS011;21737;42.868;25.320;2023-01-10T01:54:28;16.40;;;10.93;;
20038;SDS011;21737;42.868;25.320;2023-01-10T01:57:30;16.27;;;10.03;;
20038;SDS011;21737;42.868;25.320;2023-01-10T02:00:33;17.50;;;10.90;;
20038;SDS011;21737;42.868;25.320;2023-01-10T02:03:35;14.67;;;10.10;;
20038;SDS011;21737;42.868;25.320;2023-01-10T02:06:38;15.73;;;10.27;;
20038;SDS011;21737;42.868;25.320;2023-01-10T02:09:54;18.23;;;10.30;;
20038;SDS011;21737;42.868;25.320;2023-01-10T02:12:59;13.70;;;10.20;;
20038;SDS011;21737;42.868;25.320;2023-01-10T02:16:01;13.60;;;9.70;;
20038;SDS011;21737;42.868;25.320;2023-01-10T02:19:04;14.53;;;9.37;;
20038;SDS011;21737;42.868;25.320;2023-01-10T02:34:38;32.90;;;15.03;;
20038;SDS011;21737;42.868;25.320;2023-01-10T02:40:54;17.93;;;11.10;;
20038;SDS011;21737;42.868;25.320;2023-01-10T02:47:35;13.37;;;7.17;;
20038;SDS011;21737;42.868;25.320;2023-01-10T02:53:43;12.03;;;7.53;;
20038;SDS011;21737;42.868;25.320;2023-01-10T03:00:02;12.83;;;8.40;;
20038;SDS011;21737;42.868;25.320;2023-01-10T03:03:12;12.90;;;8.77;;
20038;SDS011;21737;42.868;25.320;2023-01-10T03:09:20;14.30;;;8.93;;
20038;SDS011;21737;42.868;25.320;2023-01-10T03:12:24;13.43;;;8.43;;
20038;SDS011;21737;42.868;25.320;2023-01-10T03:15:28;15.07;;;9.77;;
20038;SDS011;21737;42.868;25.320;2023-01-10T03:18:32;21.70;;;12.03;;
20038;SDS011;21737;42.868;25.320;2023-01-10T03:21:34;21.20;;;11.33;;
20038;SDS011;21737;42.868;25.320;2023-01-10T03:24:38;19.80;;;11.00;;
20038;SDS011;21737;42.868;25.320;2023-01-10T03:28:03;15.13;;;9.53;;
20038;SDS011;21737;42.868;25.320;2023-01-10T03:31:07;16.07;;;9.80;;
20038;SDS011;21737;42.868;25.320;2023-01-10T03:34:10;13.67;;;8.83;;
20038;SDS011;21737;42.868;25.320;2023-01-10T03:43:36;18.70;;;11.43;;
20038;SDS011;21737;42.868;25.320;2023-01-10T03:50:10;18.10;;;11.33;;
20038;SDS011;21737;42.868;25.320;2023-01-10T03:53:13;19.97;;;11.87;;
20038;SDS011;21737;42.868;25.320;2023-01-10T03:56:15;19.83;;;11.23;;
20038;SDS011;21737;42.868;25.320;2023-01-10T03:59:25;19.63;;;11.83;;
20038;SDS011;21737;42.868;25.320;2023-01-10T04:02:29;19.67;;;12.60;;
20038;SDS011;21737;42.868;25.320;2023-01-10T04:05:31;20.63;;;12.93;;
20038;SDS011;21737;42.868;25.320;2023-01-10T04:08:33;22.80;;;13.17;;
20038;SDS011;21737;42.868;25.320;2023-01-10T04:11:34;20.20;;;12.70;;
20038;SDS011;21737;42.868;25.320;2023-01-10T04:14:36;20.10;;;12.73;;
20038;SDS011;21737;42.868;25.320;2023-01-10T04:17:38;22.07;;;12.53;;
20038;SDS011;21737;42.868;25.320;2023-01-10T04:20:41;19.33;;;10.93;;
20038;SDS011;21737;42.868;25.320;2023-01-10T04:23:45;16.70;;;11.27;;
20038;SDS011;21737;42.868;25.320;2023-01-10T04:26:47;18.90;;;10.73;;
20038;SDS011;21737;42.868;25.320;2023-01-10T04:29:52;17.63;;;11.70;;
20038;SDS011;21737;42.868;25.320;2023-01-10T04:32:54;18.57;;;11.90;;
20038;SDS011;21737;42.868;25.320;2023-01-10T04:35:56;18.10;;;10.43;;
20038;SDS011;21737;42.868;25.320;2023-01-10T04:38:58;20.57;;;12.97;;
20038;SDS011;21737;42.868;25.320;2023-01-10T04:42:00;17.47;;;10.83;;
20038;SDS011;21737;42.868;25.320;2023-01-10T04:45:01;18.30;;;12.13;;
20038;SDS011;21737;42.868;25.320;2023-01-10T04:48:03;19.90;;;11.63;;
20038;SDS011;21737;42.868;25.320;2023-01-10T04:51:05;17.23;;;11.67;;
20038;SDS011;21737;42.868;25.320;2023-01-10T04:54:07;16.90;;;10.97;;
20038;SDS011;21737;42.868;25.320;2023-01-10T04:57:09;16.47;;;11.27;;
20038;SDS011;21737;42.868;25.320;2023-01-10T05:00:11;18.47;;;11.77;;
20038;SDS011;21737;42.868;25.320;2023-01-10T05:03:13;20.80;;;12.00;;
20038;SDS011;21737;42.868;25.320;2023-01-10T05:06:16;22.67;;;14.50;;
20038;SDS011;21737;42.868;25.320;2023-01-10T05:09:18;21.67;;;14.07;;
20038;SDS011;21737;42.868;25.320;2023-01-10T05:12:20;22.77;;;14.50;;
20038;SDS011;21737;42.868;25.320;2023-01-10T05:15:22;19.67;;;13.70;;
20038;SDS011;21737;42.868;25.320;2023-01-10T05:18:24;21.47;;;12.30;;
20038;SDS011;21737;42.868;25.320;2023-01-10T05:21:26;19.03;;;13.30;;
20038;SDS011;21737;42.868;25.320;2023-01-10T05:24:27;23.47;;;15.33;;
20038;SDS011;21737;42.868;25.320;2023-01-10T05:27:29;21.30;;;13.67;;
20038;SDS011;21737;42.868;25.320;2023-01-10T05:30:31;21.53;;;14.20;;
20038;SDS011;21737;42.868;25.320;2023-01-10T05:33:33;25.57;;;15.33;;
20038;SDS011;21737;42.868;25.320;2023-01-10T05:36:35;24.60;;;15.37;;
20038;SDS011;21737;42.868;25.320;2023-01-10T05:39:37;17.73;;;11.13;;
20038;SDS011;21737;42.868;25.320;2023-01-10T05:42:41;15.97;;;11.40;;
20038;SDS011;21737;42.868;25.320;2023-01-10T05:45:43;13.97;;;9.87;;
20038;SDS011;21737;42.868;25.320;2023-01-10T05:48:45;15.40;;;10.03;;
20038;SDS011;21737;42.868;25.320;2023-01-10T05:51:46;15.47;;;11.20;;
20038;SDS011;21737;42.868;25.320;2023-01-10T05:54:48;15.33;;;10.03;;
20038;SDS011;21737;42.868;25.320;2023-01-10T05:57:49;16.03;;;11.00;;
20038;SDS011;21737;42.868;25.320;2023-01-10T06:00:51;17.73;;;11.73;;
20038;SDS011;21737;42.868;25.320;2023-01-10T06:03:55;17.37;;;11.30;;
20038;SDS011;21737;42.868;25.320;2023-01-10T06:07:00;17.10;;;11.60;;
20038;SDS011;21737;42.868;25.320;2023-01-10T06:10:02;20.93;;;13.87;;
20038;SDS011;21737;42.868;25.320;2023-01-10T06:13:04;23.97;;;15.37;;
20038;SDS011;21737;42.868;25.320;2023-01-10T06:16:05;25.53;;;16.03;;
20038;SDS011;21737;42.868;25.320;2023-01-10T06:19:07;21.63;;;14.97;;
20038;SDS011;21737;42.868;25.320;2023-01-10T06:22:09;23.77;;;14.60;;
20038;SDS011;21737;42.868;25.320;2023-01-10T06:25:11;19.83;;;13.37;;
20038;SDS011;21737;42.868;25.320;2023-01-10T06:28:13;20.70;;;13.13;;
20038;SDS011;21737;42.868;25.320;2023-01-10T06:31:15;21.27;;;14.80;;
20038;SDS011;21737;42.868;25.320;2023-01-10T06:34:17;16.13;;;10.43;;
20038;SDS011;21737;42.868;25.320;2023-01-10T06:37:18;14.63;;;10.67;;
20038;SDS011;21737;42.868;25.320;2023-01-10T06:40:20;19.37;;;12.23;;
20038;SDS011;21737;42.868;25.320;2023-01-10T06:43:22;15.40;;;9.43;;
20038;SDS011;21737;42.868;25.320;2023-01-10T06:46:26;13.63;;;8.87;;
20038;SDS011;21737;42.868;25.320;2023-01-10T06:49:27;14.97;;;10.30;;
20038;SDS011;21737;42.868;25.320;2023-01-10T06:52:30;15.83;;;11.33;;
20038;SDS011;21737;42.868;25.320;2023-01-10T06:55:31;15.20;;;10.67;;
20038;SDS011;21737;42.868;25.320;2023-01-10T06:58:33;16.53;;;10.27;;
20038;SDS011;21737;42.868;25.320;2023-01-10T07:01:35;14.93;;;10.13;;
20038;SDS011;21737;42.868;25.320;2023-01-10T07:04:37;15.13;;;10.47;;
20038;SDS011;21737;42.868;25.320;2023-01-10T07:07:39;16.43;;;10.37;;
20038;SDS011;21737;42.868;25.320;2023-01-10T07:10:41;12.57;;;8.20;;
20038;SDS011;21737;42.868;25.320;2023-01-10T07:13:43;13.80;;;7.73;;
20038;SDS011;21737;42.868;25.320;2023-01-10T07:16:44;16.20;;;10.43;;
20038;SDS011;21737;42.868;25.320;2023-01-10T07:19:46;15.80;;;10.07;;
20038;SDS011;21737;42.868;25.320;2023-01-10T07:22:55;15.37;;;10.40;;
20038;SDS011;21737;42.868;25.320;2023-01-10T07:25:57;16.60;;;9.13;;
20038;SDS011;21737;42.868;25.320;2023-01-10T07:28:59;19.00;;;11.30;;
20038;SDS011;21737;42.868;25.320;2023-01-10T07:32:01;17.60;;;11.27;;
20038;SDS011;21737;42.868;25.320;2023-01-10T07:35:03;18.70;;;11.10;;
20038;SDS011;21737;42.868;25.320;2023-01-10T07:38:04;17.83;;;11.80;;
20038;SDS011;21737;42.868;25.320;2023-01-10T07:41:06;19.23;;;11.80;;
20038;SDS011;21737;42.868;25.320;2023-01-10T07:44:08;21.13;;;12.13;;
20038;SDS011;21737;42.868;25.320;2023-01-10T07:47:09;19.07;;;11.70;;
20038;SDS011;21737;42.868;25.320;2023-01-10T07:50:11;17.67;;;11.60;;
20038;SDS011;21737;42.868;25.320;2023-01-10T07:53:13;19.20;;;11.53;;
20038;SDS011;21737;42.868;25.320;2023-01-10T07:56:14;15.13;;;10.20;;
20038;SDS011;21737;42.868;25.320;2023-01-10T07:59:16;19.50;;;12.43;;
20038;SDS011;21737;42.868;25.320;2023-01-10T08:02:18;15.80;;;10.70;;
20038;SDS011;21737;42.868;25.320;2023-01-10T08:05:20;25.10;;;15.10;;
20038;SDS011;21737;42.868;25.320;2023-01-10T08:08:22;22.73;;;13.73;;
20038;SDS011;21737;42.868;25.320;2023-01-10T08:11:23;21.90;;;13.87;;
20038;SDS011;21737;42.868;25.320;2023-01-10T08:14:25;23.77;;;15.13;;
20038;SDS011;21737;42.868;25.320;2023-01-10T08:17:27;22.50;;;13.17;;
20038;SDS011;21737;42.868;25.320;2023-01-10T08:20:29;23.57;;;14.07;;
20038;SDS011;21737;42.868;25.320;2023-01-10T08:23:31;25.43;;;13.43;;
20038;SDS011;21737;42.868;25.320;2023-01-10T08:26:33;19.27;;;11.57;;
20038;SDS011;21737;42.868;25.320;2023-01-10T08:29:34;22.77;;;15.40;;
20038;SDS011;21737;42.868;25.320;2023-01-10T08:32:36;24.83;;;16.50;;
20038;SDS011;21737;42.868;25.320;2023-01-10T08:35:41;27.67;;;18.70;;
20038;SDS011;21737;42.868;25.320;2023-01-10T08:38:43;24.37;;;14.90;;
20038;SDS011;21737;42.868;25.320;2023-01-10T08:41:45;27.27;;;17.33;;
20038;SDS011;21737;42.868;25.320;2023-01-10T08:44:47;25.57;;;17.40;;
20038;SDS011;21737;42.868;25.320;2023-01-10T08:47:48;15.70;;;11.27;;
20038;SDS011;21737;42.868;25.320;2023-01-10T08:50:50;18.10;;;12.20;;
20038;SDS011;21737;42.868;25.320;2023-01-10T08:53:52;25.90;;;17.27;;
20038;SDS011;21737;42.868;25.320;2023-01-10T08:56:54;15.10;;;9.97;;
20038;SDS011;21737;42.868;25.320;2023-01-10T08:59:55;14.90;;;10.10;;
20038;SDS011;21737;42.868;25.320;2023-01-10T09:02:57;24.40;;;13.03;;
20038;SDS011;21737;42.868;25.320;2023-01-10T09:05:59;15.23;;;10.50;;
20038;SDS011;21737;42.868;25.320;2023-01-10T09:09:01;17.30;;;10.67;;
20038;SDS011;21737;42.868;25.320;2023-01-10T09:12:03;16.47;;;11.37;;
20038;SDS011;21737;42.868;25.320;2023-01-10T09:15:26;19.00;;;11.80;;
20038;SDS011;21737;42.868;25.320;2023-01-10T09:18:28;21.33;;;14.03;;
20038;SDS011;21737;42.868;25.320;2023-01-10T09:21:30;53.77;;;26.30;;
20038;SDS011;21737;42.868;25.320;2023-01-10T09:24:31;42.00;;;21.73;;
20038;SDS011;21737;42.868;25.320;2023-01-10T09:27:33;30.63;;;17.73;;
20038;SDS011;21737;42.868;25.320;2023-01-10T09:30:35;28.47;;;16.33;;
20038;SDS011;21737;42.868;25.320;2023-01-10T09:33:39;30.40;;;20.57;;
20038;SDS011;21737;42.868;25.320;2023-01-10T09:36:47;34.70;;;21.90;;
20038;SDS011;21737;42.868;25.320;2023-01-10T09:39:49;37.20;;;20.67;;
20038;SDS011;21737;42.868;25.320;2023-01-10T09:50:01;44.47;;;28.10;;
20038;SDS011;21737;42.868;25.320;2023-01-10T09:52:43;35.10;;;20.37;;
20038;SDS011;21737;42.868;25.320;2023-01-10T09:55:53;33.43;;;22.80;;
20038;SDS011;21737;42.868;25.320;2023-01-10T09:58:56;28.20;;;16.23;;
20038;SDS011;21737;42.868;25.320;2023-01-10T10:02:03;41.17;;;24.67;;
20038;SDS011;21737;42.868;25.320;2023-01-10T10:05:21;32.03;;;20.73;;
20038;SDS011;21737;42.868;25.320;2023-01-10T10:08:24;49.70;;;29.53;;
20038;SDS011;21737;42.868;25.320;2023-01-10T10:26:47;22.40;;;15.20;;
20038;SDS011;21737;42.868;25.320;2023-01-10T10:32:57;48.37;;;25.87;;
20038;SDS011;21737;42.868;25.320;2023-01-10T10:36:04;43.53;;;27.13;;
20038;SDS011;21737;42.868;25.320;2023-01-10T10:39:12;41.20;;;25.70;;
20038;SDS011;21737;42.868;25.320;2023-01-10T10:42:16;39.63;;;25.03;;
20038;SDS011;21737;42.868;25.320;2023-01-10T10:45:19;23.50;;;15.87;;
20038;SDS011;21737;42.868;25.320;2023-01-10T10:48:24;32.20;;;18.67;;
20038;SDS011;21737;42.868;25.320;2023-01-10T10:54:38;45.97;;;27.33;;
20038;SDS011;21737;42.868;25.320;2023-01-10T10:57:40;32.40;;;21.10;;
20038;SDS011;21737;42.868;25.320;2023-01-10T11:00:59;22.90;;;15.83;;
20038;SDS011;21737;42.868;25.320;2023-01-10T11:04:09;28.50;;;19.07;;
20038;SDS011;21737;42.868;25.320;2023-01-10T11:07:13;27.13;;;17.03;;
20038;SDS011;21737;42.868;25.320;2023-01-10T11:10:20;30.67;;;21.73;;
20038;SDS011;21737;42.868;25.320;2023-01-10T11:13:39;30.10;;;19.13;;
20038;SDS011;21737;42.868;25.320;2023-01-10T11:16:43;34.13;;;22.87;;
20038;SDS011;21737;42.868;25.320;2023-01-10T11:22:56;62.90;;;36.80;;
20038;SDS011;21737;42.868;25.320;2023-01-10T11:25:58;37.23;;;25.17;;
20038;SDS011;21737;42.868;25.320;2023-01-10T11:32:37;67.30;;;39.33;;
20038;SDS011;21737;42.868;25.320;2023-01-10T11:35:39;37.63;;;25.40;;
20038;SDS011;21737;42.868;25.320;2023-01-10T11:39:03;43.20;;;27.67;;
20038;SDS011;21737;42.868;25.320;2023-01-10T11:42:25;71.20;;;40.33;;
20038;SDS011;21737;42.868;25.320;2023-01-10T11:45:31;87.43;;;48.57;;
20038;SDS011;21737;42.868;25.320;2023-01-10T11:48:58;60.03;;;38.80;;
20038;SDS011;21737;42.868;25.320;2023-01-10T11:52:25;247.53;;;100.67;;
20038;SDS011;21737;42.868;25.320;2023-01-10T11:55:28;136.07;;;64.80;;
20038;SDS011;21737;42.868;25.320;2023-01-10T11:58:31;135.37;;;75.47;;
20038;SDS011;21737;42.868;25.320;2023-01-10T12:04:39;67.40;;;42.73;;
20038;SDS011;21737;42.868;25.320;2023-01-10T12:07:57;73.93;;;45.57;;
20038;SDS011;21737;42.868;25.320;2023-01-10T12:11:06;62.27;;;41.60;;
20038;SDS011;21737;42.868;25.320;2023-01-10T12:14:17;66.93;;;42.83;;
20038;SDS011;21737;42.868;25.320;2023-01-10T12:17:35;59.77;;;39.33;;
20038;SDS011;21737;42.868;25.320;2023-01-10T12:20:43;53.47;;;32.60;;
20038;SDS011;21737;42.868;25.320;2023-01-10T12:23:46;58.83;;;39.00;;
20038;SDS011;21737;42.868;25.320;2023-01-10T12:26:49;46.10;;;29.77;;
20038;SDS011;21737;42.868;25.320;2023-01-10T12:30:04;55.33;;;34.83;;
20038;SDS011;21737;42.868;25.320;2023-01-10T12:33:15;42.07;;;26.90;;
20038;SDS011;21737;42.868;25.320;2023-01-10T12:36:22;41.73;;;27.80;;
20038;SDS011;21737;42.868;25.320;2023-01-10T12:39:27;48.03;;;31.60;;
20038;SDS011;21737;42.868;25.320;2023-01-10T12:42:37;51.50;;;31.83;;
20038;SDS011;21737;42.868;25.320;2023-01-10T12:46:08;92.40;;;49.13;;
20038;SDS011;21737;42.868;25.320;2023-01-10T12:49:31;42.63;;;27.27;;
20038;SDS011;21737;42.868;25.320;2023-01-10T12:55:46;37.60;;;22.97;;
20038;SDS011;21737;42.868;25.320;2023-01-10T12:58:49;40.47;;;25.27;;
20038;SDS011;21737;42.868;25.320;2023-01-10T13:01:53;42.63;;;26.93;;
20038;SDS011;21737;42.868;25.320;2023-01-10T13:04:57;52.77;;;32.20;;
20038;SDS011;21737;42.868;25.320;2023-01-10T13:08:14;59.20;;;34.33;;
20038;SDS011;21737;42.868;25.320;2023-01-10T13:11:17;66.77;;;38.13;;
20038;SDS011;21737;42.868;25.320;2023-01-10T13:14:28;54.77;;;33.83;;
20038;SDS011;21737;42.868;25.320;2023-01-10T13:20:37;54.30;;;35.60;;
20038;SDS011;21737;42.868;25.320;2023-01-10T13:23:45;46.47;;;31.87;;
20038;SDS011;21737;42.868;25.320;2023-01-10T13:26:58;50.03;;;32.77;;
20038;SDS011;21737;42.868;25.320;2023-01-10T13:30:00;51.40;;;33.60;;
20038;SDS011;21737;42.868;25.320;2023-01-10T13:33:04;64.43;;;39.13;;
20038;SDS011;21737;42.868;25.320;2023-01-10T13:36:16;77.93;;;44.53;;
20038;SDS011;21737;42.868;25.320;2023-01-10T13:45:44;137.50;;;74.90;;
20038;SDS011;21737;42.868;25.320;2023-01-10T13:52:33;51.07;;;31.93;;
20038;SDS011;21737;42.868;25.320;2023-01-10T13:55:25;44.40;;;27.87;;
20038;SDS011;21737;42.868;25.320;2023-01-10T13:58:38;89.17;;;52.50;;
20038;SDS011;21737;42.868;25.320;2023-01-10T14:01:59;69.67;;;39.00;;
20038;SDS011;21737;42.868;25.320;2023-01-10T14:05:20;62.07;;;27.13;;
20038;SDS011;21737;42.868;25.320;2023-01-10T14:08:24;55.50;;;30.80;;
20038;SDS011;21737;42.868;25.320;2023-01-10T14:11:27;56.27;;;31.17;;
20038;SDS011;21737;42.868;25.320;2023-01-10T14:14:34;49.13;;;26.73;;
20038;SDS011;21737;42.868;25.320;2023-01-10T14:17:38;35.80;;;20.30;;
20038;SDS011;21737;42.868;25.320;2023-01-10T14:20:40;26.90;;;16.70;;
20038;SDS011;21737;42.868;25.320;2023-01-10T14:23:43;24.27;;;16.63;;
20038;SDS011;21737;42.868;25.320;2023-01-10T14:26:48;23.27;;;15.87;;
20038;SDS011;21737;42.868;25.320;2023-01-10T14:29:56;24.60;;;15.17;;
20038;SDS011;21737;42.868;25.320;2023-01-10T14:32:59;23.73;;;14.73;;
20038;SDS011;21737;42.868;25.320;2023-01-10T14:36:04;19.77;;;13.43;;
20038;SDS011;21737;42.868;25.320;2023-01-10T14:39:09;19.93;;;13.67;;
20038;SDS011;21737;42.868;25.320;2023-01-10T14:42:14;20.07;;;13.70;;
20038;SDS011;21737;42.868;25.320;2023-01-10T14:48:44;14.80;;;11.47;;
20038;SDS011;21737;42.868;25.320;2023-01-10T14:51:46;24.57;;;16.70;;
20038;SDS011;21737;42.868;25.320;2023-01-10T14:55:10;15.93;;;11.17;;
20038;SDS011;21737;42.868;25.320;2023-01-10T14:58:12;18.83;;;12.47;;
20038;SDS011;21737;42.868;25.320;2023-01-10T15:01:22;17.57;;;10.53;;
20038;SDS011;21737;42.868;25.320;2023-01-10T15:04:26;12.90;;;9.27;;
20038;SDS011;21737;42.868;25.320;2023-01-10T15:07:28;12.73;;;8.80;;
20038;SDS011;21737;42.868;25.320;2023-01-10T15:10:30;14.33;;;10.20;;
20038;SDS011;21737;42.868;25.320;2023-01-10T15:13:34;14.27;;;9.57;;
20038;SDS011;21737;42.868;25.320;2023-01-10T15:16:37;17.33;;;11.00;;
20038;SDS011;21737;42.868;25.320;2023-01-10T15:19:40;20.03;;;13.23;;
20038;SDS011;21737;42.868;25.320;2023-01-10T15:22:58;19.23;;;12.37;;
20038;SDS011;21737;42.868;25.320;2023-01-10T15:26:02;19.63;;;12.93;;
20038;SDS011;21737;42.868;25.320;2023-01-10T15:32:10;22.17;;;14.10;;
20038;SDS011;21737;42.868;25.320;2023-01-10T15:35:12;13.10;;;9.43;;
20038;SDS011;21737;42.868;25.320;2023-01-10T15:38:21;12.93;;;9.20;;
20038;SDS011;21737;42.868;25.320;2023-01-10T15:41:24;30.27;;;18.27;;
20038;SDS011;21737;42.868;25.320;2023-01-10T15:44:42;26.50;;;16.60;;
20038;SDS011;21737;42.868;25.320;2023-01-10T15:50:57;12.73;;;8.70;;
20038;SDS011;21737;42.868;25.320;2023-01-10T15:54:06;21.47;;;13.87;;
20038;SDS011;21737;42.868;25.320;2023-01-10T15:57:30;20.13;;;11.90;;
20038;SDS011;21737;42.868;25.320;2023-01-10T16:00:33;28.90;;;17.13;;
20038;SDS011;21737;42.868;25.320;2023-01-10T16:03:35;17.07;;;11.83;;
20038;SDS011;21737;42.868;25.320;2023-01-10T16:06:38;14.63;;;9.40;;
20038;SDS011;21737;42.868;25.320;2023-01-10T16:09:40;14.43;;;10.20;;
20038;SDS011;21737;42.868;25.320;2023-01-10T16:12:42;13.10;;;8.63;;
20038;SDS011;21737;42.868;25.320;2023-01-10T16:16:04;17.87;;;11.87;;
20038;SDS011;21737;42.868;25.320;2023-01-10T16:19:08;15.53;;;11.43;;
20038;SDS011;21737;42.868;25.320;2023-01-10T16:22:10;17.40;;;11.87;;
20038;SDS011;21737;42.868;25.320;2023-01-10T16:25:25;13.17;;;9.13;;
20038;SDS011;21737;42.868;25.320;2023-01-10T16:28:27;16.87;;;11.30;;
20038;SDS011;21737;42.868;25.320;2023-01-10T16:31:33;23.17;;;12.67;;
20038;SDS011;21737;42.868;25.320;2023-01-10T16:34:35;12.27;;;8.27;;
20038;SDS011;21737;42.868;25.320;2023-01-10T16:37:36;16.13;;;10.47;;
20038;SDS011;21737;42.868;25.320;2023-01-10T16:40:39;21.20;;;12.67;;
20038;SDS011;21737;42.868;25.320;2023-01-10T16:43:41;17.60;;;10.40;;
20038;SDS011;21737;42.868;25.320;2023-01-10T16:46:42;26.83;;;16.47;;
20038;SDS011;21737;42.868;25.320;2023-01-10T16:49:44;17.60;;;10.50;;
20038;SDS011;21737;42.868;25.320;2023-01-10T16:52:47;27.47;;;16.47;;
20038;SDS011;21737;42.868;25.320;2023-01-10T16:55:50;39.30;;;23.23;;
20038;SDS011;21737;42.868;25.320;2023-01-10T16:58:52;29.07;;;16.63;;
20038;SDS011;21737;42.868;25.320;2023-01-10T17:01:55;18.43;;;11.53;;
20038;SDS011;21737;42.868;25.320;2023-01-10T17:04:57;15.57;;;9.33;;
20038;SDS011;21737;42.868;25.320;2023-01-10T17:07:59;16.17;;;11.03;;
20038;SDS011;21737;42.868;25.320;2023-01-10T17:11:02;12.33;;;8.37;;
20038;SDS011;21737;42.868;25.320;2023-01-10T17:14:08;14.00;;;8.93;;
20038;SDS011;21737;42.868;25.320;2023-01-10T17:17:12;13.07;;;9.47;;
20038;SDS011;21737;42.868;25.320;2023-01-10T17:20:14;14.57;;;9.87;;
20038;SDS011;21737;42.868;25.320;2023-01-10T17:23:16;23.37;;;13.17;;
20038;SDS011;21737;42.868;25.320;2023-01-10T17:26:18;21.40;;;13.43;;
20038;SDS011;21737;42.868;25.320;2023-01-10T17:29:20;24.17;;;14.77;;
20038;SDS011;21737;42.868;25.320;2023-01-10T17:32:23;23.07;;;13.87;;
20038;SDS011;21737;42.868;25.320;2023-01-10T17:35:25;20.20;;;13.47;;
20038;SDS011;21737;42.868;25.320;2023-01-10T17:38:32;19.73;;;12.67;;
20038;SDS011;21737;42.868;25.320;2023-01-10T17:41:34;8.70;;;6.27;;
20038;SDS011;21737;42.868;25.320;2023-01-10T17:44:36;12.77;;;8.93;;
20038;SDS011;21737;42.868;25.320;2023-01-10T17:47:38;26.70;;;16.23;;
20038;SDS011;21737;42.868;25.320;2023-01-10T17:50:40;10.00;;;7.20;;
20038;SDS011;21737;42.868;25.320;2023-01-10T17:53:41;10.70;;;7.00;;
20038;SDS011;21737;42.868;25.320;2023-01-10T17:56:43;15.53;;;11.03;;
20038;SDS011;21737;42.868;25.320;2023-01-10T17:59:45;16.10;;;10.60;;
20038;SDS011;21737;42.868;25.320;2023-01-10T18:02:46;17.20;;;11.67;;
20038;SDS011;21737;42.868;25.320;2023-01-10T18:05:49;12.67;;;9.40;;
20038;SDS011;21737;42.868;25.320;2023-01-10T18:08:51;11.40;;;8.00;;
20038;SDS011;21737;42.868;25.320;2023-01-10T18:11:53;17.20;;;11.70;;
20038;SDS011;21737;42.868;25.320;2023-01-10T18:14:54;16.70;;;10.13;;
20038;SDS011;21737;42.868;25.320;2023-01-10T18:17:56;14.67;;;9.40;;
20038;SDS011;21737;42.868;25.320;2023-01-10T18:20:58;16.87;;;9.97;;
20038;SDS011;21737;42.868;25.320;2023-01-10T18:24:02;12.60;;;8.80;;
20038;SDS011;21737;42.868;25.320;2023-01-10T18:27:04;21.37;;;12.40;;
20038;SDS011;21737;42.868;25.320;2023-01-10T18:30:06;14.30;;;9.97;;
20038;SDS011;21737;42.868;25.320;2023-01-10T18:33:08;11.57;;;8.20;;
20038;SDS011;21737;42.868;25.320;2023-01-10T18:36:13;10.93;;;7.70;;
20038;SDS011;21737;42.868;25.320;2023-01-10T18:39:15;11.53;;;8.20;;
20038;SDS011;21737;42.868;25.320;2023-01-10T18:42:17;13.83;;;9.47;;
20038;SDS011;21737;42.868;25.320;2023-01-10T18:45:18;15.50;;;10.87;;
20038;SDS011;21737;42.868;25.320;2023-01-10T18:48:20;20.43;;;13.83;;
20038;SDS011;21737;42.868;25.320;2023-01-10T18:51:26;27.60;;;17.20;;
20038;SDS011;21737;42.868;25.320;2023-01-10T18:54:27;21.00;;;12.80;;
20038;SDS011;21737;42.868;25.320;2023-01-10T18:57:29;12.87;;;8.70;;
20038;SDS011;21737;42.868;25.320;2023-01-10T19:00:32;10.47;;;7.83;;
20038;SDS011;21737;42.868;25.320;2023-01-10T19:03:34;13.27;;;8.97;;
20038;SDS011;21737;42.868;25.320;2023-01-10T19:06:36;12.67;;;8.80;;
20038;SDS011;21737;42.868;25.320;2023-01-10T19:09:38;16.83;;;9.97;;
20038;SDS011;21737;42.868;25.320;2023-01-10T19:12:39;20.33;;;12.23;;
20038;SDS011;21737;42.868;25.320;2023-01-10T19:15:42;21.87;;;10.70;;
20038;SDS011;21737;42.868;25.320;2023-01-10T19:18:51;17.97;;;9.67;;
20038;SDS011;21737;42.868;25.320;2023-01-10T19:21:53;10.30;;;6.47;;
20038;SDS011;21737;42.868;25.320;2023-01-10T19:24:55;5.07;;;3.50;;
20038;SDS011;21737;42.868;25.320;2023-01-10T19:27:56;7.10;;;4.83;;
20038;SDS011;21737;42.868;25.320;2023-01-10T19:30:58;7.40;;;5.20;;
20038;SDS011;21737;42.868;25.320;2023-01-10T19:34:05;9.87;;;5.70;;